sensor_id;sensor_type;location;lat;lon;timestamp;pressure;altitude;pressure_sealevel;temperature;humidity
75172;BME280;63750;52.418;20.742;2023-03-19T00:00:57;100826.95;;;10.46;36.12
75172;BME280;63750;52.418;20.742;2023-03-19T00:03:30;100831.24;;;10.50;36.13
75172;BME280;63750;52.418;20.742;2023-03-19T00:05:58;100832.70;;;10.49;36.43
75172;BME280;63750;52.418;20.742;2023-03-19T00:08:27;100827.14;;;10.52;36.53
75172;BME280;63750;52.418;20.742;2023-03-19T00:10:55;100821.75;;;10.51;36.11
75172;BME280;63750;52.418;20.742;2023-03-19T00:13:24;100826.30;;;10.49;36.44
75172;BME280;63750;52.418;20.742;2023-03-19T00:15:53;100825.23;;;10.41;36.53
75172;BME280;63750;52.418;20.742;2023-03-19T00:18:21;100823.31;;;10.36;36.65
75172;BME280;63750;52.418;20.742;2023-03-19T00:20:49;100820.42;;;10.35;36.60
75172;BME280;63750;52.418;20.742;2023-03-19T00:23:18;100818.60;;;10.33;36.88
75172;BME280;63750;52.418;20.742;2023-03-19T00:25:47;100815.94;;;10.24;36.76
75172;BME280;63750;52.418;20.742;2023-03-19T00:28:15;100814.96;;;10.19;37.02
75172;BME280;63750;52.418;20.742;2023-03-19T00:30:44;100818.89;;;10.16;36.94
75172;BME280;63750;52.418;20.742;2023-03-19T00:33:12;100809.38;;;10.15;37.09
75172;BME280;63750;52.418;20.742;2023-03-19T00:35:41;100811.20;;;10.13;36.93
75172;BME280;63750;52.418;20.742;2023-03-19T00:38:09;100816.70;;;10.12;37.68
75172;BME280;63750;52.418;20.742;2023-03-19T00:40:38;100812.41;;;10.17;37.41
75172;BME280;63750;52.418;20.742;2023-03-19T00:43:07;100813.86;;;10.17;37.24
75172;BME280;63750;52.418;20.742;2023-03-19T00:45:35;100810.06;;;10.16;37.24
75172;BME280;63750;52.418;20.742;2023-03-19T00:48:04;100810.95;;;10.16;37.17
75172;BME280;63750;52.418;20.742;2023-03-19T00:50:33;100809.73;;;10.15;37.17
75172;BME280;63750;52.418;20.742;2023-03-19T00:53:02;100810.35;;;10.16;37.32
75172;BME280;63750;52.418;20.742;2023-03-19T00:55:30;100812.86;;;10.14;37.09
75172;BME280;63750;52.418;20.742;2023-03-19T00:57:58;100814.40;;;10.08;37.03
75172;BME280;63750;52.418;20.742;2023-03-19T01:00:27;100814.82;;;10.03;37.03
75172;BME280;63750;52.418;20.742;2023-03-19T01:02:56;100815.02;;;10.00;37.54
75172;BME280;63750;52.418;20.742;2023-03-19T01:05:24;100818.69;;;9.94;37.49
75172;BME280;63750;52.418;20.742;2023-03-19T01:07:53;100812.22;;;9.89;37.62
75172;BME280;63750;52.418;20.742;2023-03-19T01:10:23;100813.67;;;9.84;37.27
75172;BME280;63750;52.418;20.742;2023-03-19T01:12:52;100815.24;;;9.78;37.26
75172;BME280;63750;52.418;20.742;2023-03-19T01:15:20;100818.20;;;9.67;37.63
75172;BME280;63750;52.418;20.742;2023-03-19T01:17:49;100818.70;;;9.61;37.45
75172;BME280;63750;52.418;20.742;2023-03-19T01:20:17;100818.42;;;9.58;37.81
75172;BME280;63750;52.418;20.742;2023-03-19T01:22:46;100817.51;;;9.58;37.79
75172;BME280;63750;52.418;20.742;2023-03-19T01:25:15;100817.98;;;9.57;37.50
75172;BME280;63750;52.418;20.742;2023-03-19T01:27:43;100816.70;;;9.52;38.03
75172;BME280;63750;52.418;20.742;2023-03-19T01:30:20;100816.67;;;9.52;38.12
75172;BME280;63750;52.418;20.742;2023-03-19T01:32:54;100817.18;;;9.51;37.96
75172;BME280;63750;52.418;20.742;2023-03-19T01:35:22;100816.35;;;9.48;38.08
75172;BME280;63750;52.418;20.742;2023-03-19T01:37:51;100821.75;;;9.49;38.16
75172;BME280;63750;52.418;20.742;2023-03-19T01:40:19;100819.04;;;9.49;38.34
75172;BME280;63750;52.418;20.742;2023-03-19T01:42:56;100819.09;;;9.47;38.14
75172;BME280;63750;52.418;20.742;2023-03-19T01:45:36;100820.91;;;9.46;38.15
75172;BME280;63750;52.418;20.742;2023-03-19T01:48:05;100821.64;;;9.41;38.38
75172;BME280;63750;52.418;20.742;2023-03-19T01:50:40;100824.44;;;9.37;38.57
75172;BME280;63750;52.418;20.742;2023-03-19T01:53:11;100821.42;;;9.37;38.68
75172;BME280;63750;52.418;20.742;2023-03-19T01:55:41;100822.54;;;9.39;38.54
75172;BME280;63750;52.418;20.742;2023-03-19T01:58:10;100822.64;;;9.40;38.64
75172;BME280;63750;52.418;20.742;2023-03-19T02:00:39;100824.61;;;9.44;38.88
75172;BME280;63750;52.418;20.742;2023-03-19T02:03:07;100821.27;;;9.46;38.82
75172;BME280;63750;52.418;20.742;2023-03-19T02:05:38;100819.88;;;9.48;38.64
75172;BME280;63750;52.418;20.742;2023-03-19T02:08:10;100811.84;;;9.47;38.58
75172;BME280;63750;52.418;20.742;2023-03-19T02:10:40;100811.15;;;9.42;38.77
75172;BME280;63750;52.418;20.742;2023-03-19T02:13:09;100813.38;;;9.38;38.83
75172;BME280;63750;52.418;20.742;2023-03-19T02:15:38;100817.93;;;9.32;39.07
75172;BME280;63750;52.418;20.742;2023-03-19T02:18:07;100818.42;;;9.31;38.99
75172;BME280;63750;52.418;20.742;2023-03-19T02:20:42;100812.69;;;9.27;39.28
75172;BME280;63750;52.418;20.742;2023-03-19T02:23:17;100809.55;;;9.26;39.51
75172;BME280;63750;52.418;20.742;2023-03-19T02:26:00;100810.02;;;9.29;39.32
75172;BME280;63750;52.418;20.742;2023-03-19T02:28:30;100807.48;;;9.33;39.33
75172;BME280;63750;52.418;20.742;2023-03-19T02:31:00;100809.15;;;9.36;39.04
75172;BME280;63750;52.418;20.742;2023-03-19T02:33:28;100813.16;;;9.37;39.51
75172;BME280;63750;52.418;20.742;2023-03-19T02:35:58;100817.11;;;9.36;39.10
75172;BME280;63750;52.418;20.742;2023-03-19T02:38:27;100815.08;;;9.33;39.31
75172;BME280;63750;52.418;20.742;2023-03-19T02:41:00;100817.71;;;9.30;39.13
75172;BME280;63750;52.418;20.742;2023-03-19T02:43:29;100819.20;;;9.27;39.21
75172;BME280;63750;52.418;20.742;2023-03-19T02:45:59;100824.89;;;9.27;39.37
75172;BME280;63750;52.418;20.742;2023-03-19T02:48:28;100824.48;;;9.25;39.39
75172;BME280;63750;52.418;20.742;2023-03-19T02:50:57;100828.31;;;9.26;39.80
75172;BME280;63750;52.418;20.742;2023-03-19T02:53:25;100825.60;;;9.25;39.44
75172;BME280;63750;52.418;20.742;2023-03-19T02:55:54;100827.67;;;9.23;39.81
75172;BME280;63750;52.418;20.742;2023-03-19T02:58:23;100824.84;;;9.20;39.58
75172;BME280;63750;52.418;20.742;2023-03-19T03:00:51;100830.04;;;9.19;39.92
75172;BME280;63750;52.418;20.742;2023-03-19T03:03:20;100825.56;;;9.18;40.08
75172;BME280;63750;52.418;20.742;2023-03-19T03:05:48;100824.81;;;9.19;39.83
75172;BME280;63750;52.418;20.742;2023-03-19T03:08:17;100825.52;;;9.19;39.76
75172;BME280;63750;52.418;20.742;2023-03-19T03:10:46;100825.98;;;9.17;40.13
75172;BME280;63750;52.418;20.742;2023-03-19T03:13:14;100822.68;;;9.16;40.11
75172;BME280;63750;52.418;20.742;2023-03-19T03:15:43;100819.25;;;9.15;40.24
75172;BME280;63750;52.418;20.742;2023-03-19T03:18:11;100822.48;;;9.14;40.18
75172;BME280;63750;52.418;20.742;2023-03-19T03:20:40;100826.75;;;9.12;40.29
75172;BME280;63750;52.418;20.742;2023-03-19T03:23:08;100827.54;;;9.08;40.36
75172;BME280;63750;52.418;20.742;2023-03-19T03:25:37;100828.27;;;9.04;40.14
75172;BME280;63750;52.418;20.742;2023-03-19T03:28:05;100828.84;;;8.98;39.91
75172;BME280;63750;52.418;20.742;2023-03-19T03:30:34;100822.79;;;8.94;40.13
75172;BME280;63750;52.418;20.742;2023-03-19T03:33:02;100819.39;;;8.88;40.37
75172;BME280;63750;52.418;20.742;2023-03-19T03:35:31;100821.20;;;8.82;40.27
75172;BME280;63750;52.418;20.742;2023-03-19T03:37:59;100820.20;;;8.77;40.40
75172;BME280;63750;52.418;20.742;2023-03-19T03:40:28;100820.58;;;8.75;40.50
75172;BME280;63750;52.418;20.742;2023-03-19T03:42:56;100818.94;;;8.73;40.75
75172;BME280;63750;52.418;20.742;2023-03-19T03:45:25;100820.85;;;8.68;40.85
75172;BME280;63750;52.418;20.742;2023-03-19T03:47:54;100814.70;;;8.65;40.69
75172;BME280;63750;52.418;20.742;2023-03-19T03:50:22;100813.86;;;8.63;40.93
75172;BME280;63750;52.418;20.742;2023-03-19T03:52:50;100811.66;;;8.59;41.01
75172;BME280;63750;52.418;20.742;2023-03-19T03:55:19;100813.81;;;8.56;41.01
75172;BME280;63750;52.418;20.742;2023-03-19T03:57:47;100813.80;;;8.54;41.09
75172;BME280;63750;52.418;20.742;2023-03-19T04:00:16;100812.08;;;8.48;41.54
75172;BME280;63750;52.418;20.742;2023-03-19T04:02:45;100807.20;;;8.43;41.74
75172;BME280;63750;52.418;20.742;2023-03-19T04:05:14;100806.13;;;8.41;42.02
75172;BME280;63750;52.418;20.742;2023-03-19T04:07:42;100806.95;;;8.42;41.97
75172;BME280;63750;52.418;20.742;2023-03-19T04:10:12;100808.61;;;8.38;42.02
75172;BME280;63750;52.418;20.742;2023-03-19T04:12:41;100808.12;;;8.30;42.19
75172;BME280;63750;52.418;20.742;2023-03-19T04:15:11;100801.91;;;8.28;42.08
75172;BME280;63750;52.418;20.742;2023-03-19T04:17:40;100804.34;;;8.21;42.03
75172;BME280;63750;52.418;20.742;2023-03-19T04:20:10;100802.04;;;8.19;42.14
75172;BME280;63750;52.418;20.742;2023-03-19T04:22:39;100800.17;;;8.18;42.03
75172;BME280;63750;52.418;20.742;2023-03-19T04:25:09;100795.25;;;8.16;42.13
75172;BME280;63750;52.418;20.742;2023-03-19T04:27:37;100797.33;;;8.13;42.07
75172;BME280;63750;52.418;20.742;2023-03-19T04:30:07;100799.42;;;8.17;42.19
75172;BME280;63750;52.418;20.742;2023-03-19T04:32:36;100796.48;;;8.13;42.05
75172;BME280;63750;52.418;20.742;2023-03-19T04:35:06;100795.48;;;8.15;42.26
75172;BME280;63750;52.418;20.742;2023-03-19T04:37:34;100797.34;;;8.18;42.17
75172;BME280;63750;52.418;20.742;2023-03-19T04:40:03;100794.94;;;8.15;42.01
75172;BME280;63750;52.418;20.742;2023-03-19T04:42:32;100794.73;;;8.13;42.12
75172;BME280;63750;52.418;20.742;2023-03-19T04:45:00;100798.35;;;8.11;42.20
75172;BME280;63750;52.418;20.742;2023-03-19T04:47:29;100796.42;;;8.09;42.26
75172;BME280;63750;52.418;20.742;2023-03-19T04:49:57;100802.08;;;8.09;42.13
75172;BME280;63750;52.418;20.742;2023-03-19T04:52:26;100803.33;;;8.08;42.36
75172;BME280;63750;52.418;20.742;2023-03-19T04:54:54;100806.55;;;8.08;42.45
75172;BME280;63750;52.418;20.742;2023-03-19T04:57:23;100808.23;;;8.09;42.52
75172;BME280;63750;52.418;20.742;2023-03-19T04:59:51;100811.16;;;8.10;42.52
75172;BME280;63750;52.418;20.742;2023-03-19T05:02:20;100812.96;;;8.12;42.51
75172;BME280;63750;52.418;20.742;2023-03-19T05:04:48;100813.90;;;8.11;42.52
75172;BME280;63750;52.418;20.742;2023-03-19T05:07:17;100811.44;;;8.08;42.58
75172;BME280;63750;52.418;20.742;2023-03-19T05:09:45;100814.34;;;8.05;42.59
75172;BME280;63750;52.418;20.742;2023-03-19T05:12:14;100813.95;;;8.05;42.63
75172;BME280;63750;52.418;20.742;2023-03-19T05:14:43;100813.41;;;8.06;42.68
75172;BME280;63750;52.418;20.742;2023-03-19T05:17:12;100810.88;;;8.07;42.73
75172;BME280;63750;52.418;20.742;2023-03-19T05:19:40;100813.00;;;8.09;42.64
75172;BME280;63750;52.418;20.742;2023-03-19T05:22:09;100817.53;;;8.10;42.81
75172;BME280;63750;52.418;20.742;2023-03-19T05:24:37;100817.73;;;8.10;42.85
75172;BME280;63750;52.418;20.742;2023-03-19T05:27:06;100821.77;;;8.12;42.80
75172;BME280;63750;52.418;20.742;2023-03-19T05:29:35;100821.57;;;8.17;42.86
75172;BME280;63750;52.418;20.742;2023-03-19T05:32:03;100827.22;;;8.22;42.64
75172;BME280;63750;52.418;20.742;2023-03-19T05:34:32;100827.13;;;8.26;42.77
75172;BME280;63750;52.418;20.742;2023-03-19T05:37:01;100827.65;;;8.31;42.86
75172;BME280;63750;52.418;20.742;2023-03-19T05:39:29;100827.48;;;8.36;42.83
75172;BME280;63750;52.418;20.742;2023-03-19T05:41:58;100827.64;;;8.41;42.76
75172;BME280;63750;52.418;20.742;2023-03-19T05:44:26;100822.75;;;8.43;42.60
75172;BME280;63750;52.418;20.742;2023-03-19T05:46:56;100820.85;;;8.49;42.59
75172;BME280;63750;52.418;20.742;2023-03-19T05:49:24;100820.22;;;8.56;42.71
75172;BME280;63750;52.418;20.742;2023-03-19T05:51:53;100820.98;;;8.58;42.70
75172;BME280;63750;52.418;20.742;2023-03-19T05:54:22;100818.29;;;8.60;42.56
75172;BME280;63750;52.418;20.742;2023-03-19T05:56:50;100819.59;;;8.64;42.48
75172;BME280;63750;52.418;20.742;2023-03-19T05:59:47;100822.92;;;8.69;42.44
75172;BME280;63750;52.418;20.742;2023-03-19T06:02:23;100828.58;;;8.71;42.49
75172;BME280;63750;52.418;20.742;2023-03-19T06:04:52;100831.42;;;8.71;42.51
75172;BME280;63750;52.418;20.742;2023-03-19T06:07:21;100834.27;;;8.71;42.25
75172;BME280;63750;52.418;20.742;2023-03-19T06:09:49;100837.14;;;8.77;42.29
75172;BME280;63750;52.418;20.742;2023-03-19T06:12:18;100836.69;;;8.83;42.28
75172;BME280;63750;52.418;20.742;2023-03-19T06:14:50;100833.96;;;8.87;42.25
75172;BME280;63750;52.418;20.742;2023-03-19T06:17:25;100833.30;;;8.91;42.34
75172;BME280;63750;52.418;20.742;2023-03-19T06:19:54;100839.40;;;8.99;42.28
75172;BME280;63750;52.418;20.742;2023-03-19T06:22:23;100839.06;;;9.08;42.29
75172;BME280;63750;52.418;20.742;2023-03-19T06:25:17;100844.17;;;9.15;42.39
75172;BME280;63750;52.418;20.742;2023-03-19T06:27:53;100841.94;;;9.23;42.37
75172;BME280;63750;52.418;20.742;2023-03-19T06:30:22;100842.54;;;9.34;42.20
75172;BME280;63750;52.418;20.742;2023-03-19T06:32:59;100840.21;;;9.48;41.97
75172;BME280;63750;52.418;20.742;2023-03-19T06:35:36;100834.88;;;9.64;41.78
75172;BME280;63750;52.418;20.742;2023-03-19T06:38:13;100833.10;;;9.80;41.84
75172;BME280;63750;52.418;20.742;2023-03-19T06:43:56;100833.34;;;10.12;41.58
75172;BME280;63750;52.418;20.742;2023-03-19T06:46:45;100833.95;;;10.30;41.30
75172;BME280;63750;52.418;20.742;2023-03-19T06:49:34;100838.91;;;10.40;41.46
75172;BME280;63750;52.418;20.742;2023-03-19T06:52:23;100840.23;;;10.52;40.80
75172;BME280;63750;52.418;20.742;2023-03-19T06:55:13;100842.90;;;10.60;40.60
75172;BME280;63750;52.418;20.742;2023-03-19T06:58:02;100844.80;;;10.63;40.03
75172;BME280;63750;52.418;20.742;2023-03-19T07:00:39;100845.29;;;10.68;40.28
75172;BME280;63750;52.418;20.742;2023-03-19T07:03:28;100851.62;;;10.77;40.40
75172;BME280;63750;52.418;20.742;2023-03-19T07:05:57;100853.22;;;10.84;40.05
75172;BME280;63750;52.418;20.742;2023-03-19T07:08:26;100859.45;;;10.87;39.70
75172;BME280;63750;52.418;20.742;2023-03-19T07:10:54;100861.54;;;10.82;40.20
75172;BME280;63750;52.418;20.742;2023-03-19T07:13:23;100860.78;;;10.76;39.36
75172;BME280;63750;52.418;20.742;2023-03-19T07:15:51;100855.29;;;10.70;39.53
75172;BME280;63750;52.418;20.742;2023-03-19T07:18:27;100859.66;;;10.68;39.57
75172;BME280;63750;52.418;20.742;2023-03-19T07:20:59;100860.42;;;10.74;39.36
75172;BME280;63750;52.418;20.742;2023-03-19T07:23:28;100859.84;;;10.83;39.32
75172;BME280;63750;52.418;20.742;2023-03-19T07:26:12;100859.52;;;10.93;39.47
75172;BME280;63750;52.418;20.742;2023-03-19T07:28:41;100858.09;;;11.06;39.35
75172;BME280;63750;52.418;20.742;2023-03-19T07:31:25;100861.49;;;11.10;39.09
75172;BME280;63750;52.418;20.742;2023-03-19T07:34:21;100866.23;;;11.19;38.99
75172;BME280;63750;52.418;20.742;2023-03-19T07:36:51;100866.45;;;11.22;38.74
75172;BME280;63750;52.418;20.742;2023-03-19T07:39:20;100869.80;;;11.35;38.90
75172;BME280;63750;52.418;20.742;2023-03-19T07:41:48;100865.17;;;11.46;38.69
75172;BME280;63750;52.418;20.742;2023-03-19T07:44:17;100870.29;;;11.55;38.50
75172;BME280;63750;52.418;20.742;2023-03-19T07:46:50;100864.75;;;11.63;38.29
75172;BME280;63750;52.418;20.742;2023-03-19T07:49:24;100866.59;;;11.66;38.07
75172;BME280;63750;52.418;20.742;2023-03-19T07:51:59;100867.61;;;11.67;37.94
75172;BME280;63750;52.418;20.742;2023-03-19T07:54:40;100869.67;;;11.78;37.87
75172;BME280;63750;52.418;20.742;2023-03-19T07:57:12;100871.39;;;11.81;37.74
75172;BME280;63750;52.418;20.742;2023-03-19T07:59:42;100870.58;;;11.90;37.82
75172;BME280;63750;52.418;20.742;2023-03-19T08:02:12;100869.21;;;12.06;37.73
75172;BME280;63750;52.418;20.742;2023-03-19T08:04:45;100865.27;;;12.14;37.71
75172;BME280;63750;52.418;20.742;2023-03-19T08:10:14;100863.98;;;12.35;37.36
75172;BME280;63750;52.418;20.742;2023-03-19T08:12:43;100866.95;;;12.47;37.39
75172;BME280;63750;52.418;20.742;2023-03-19T08:15:12;100865.92;;;12.62;37.17
75172;BME280;63750;52.418;20.742;2023-03-19T08:17:49;100864.34;;;12.74;36.84
75172;BME280;63750;52.418;20.742;2023-03-19T08:20:24;100862.10;;;12.87;36.67
75172;BME280;63750;52.418;20.742;2023-03-19T08:22:53;100860.73;;;12.92;36.32
75172;BME280;63750;52.418;20.742;2023-03-19T08:25:21;100861.42;;;13.03;36.56
75172;BME280;63750;52.418;20.742;2023-03-19T08:27:50;100865.79;;;13.17;36.36
75172;BME280;63750;52.418;20.742;2023-03-19T08:30:19;100860.72;;;13.29;36.31
75172;BME280;63750;52.418;20.742;2023-03-19T08:32:50;100861.07;;;13.35;36.02
75172;BME280;63750;52.418;20.742;2023-03-19T08:35:19;100859.65;;;13.44;35.92
75172;BME280;63750;52.418;20.742;2023-03-19T08:37:47;100860.67;;;13.51;35.74
75172;BME280;63750;52.418;20.742;2023-03-19T08:40:16;100856.79;;;13.52;35.65
75172;BME280;63750;52.418;20.742;2023-03-19T08:42:44;100859.39;;;13.60;35.72
75172;BME280;63750;52.418;20.742;2023-03-19T08:45:14;100859.89;;;13.71;35.72
75172;BME280;63750;52.418;20.742;2023-03-19T08:47:44;100860.33;;;13.82;35.44
75172;BME280;63750;52.418;20.742;2023-03-19T08:50:13;100854.19;;;13.85;35.22
75172;BME280;63750;52.418;20.742;2023-03-19T08:52:42;100854.13;;;13.89;35.09
75172;BME280;63750;52.418;20.742;2023-03-19T08:55:11;100856.90;;;13.97;35.00
75172;BME280;63750;52.418;20.742;2023-03-19T08:57:40;100852.41;;;14.08;34.87
75172;BME280;63750;52.418;20.742;2023-03-19T09:00:10;100856.40;;;14.21;34.86
75172;BME280;63750;52.418;20.742;2023-03-19T09:02:39;100851.00;;;14.34;34.89
75172;BME280;63750;52.418;20.742;2023-03-19T09:05:08;100853.40;;;14.50;34.73
75172;BME280;63750;52.418;20.742;2023-03-19T09:07:37;100855.25;;;14.71;34.78
75172;BME280;63750;52.418;20.742;2023-03-19T09:10:07;100858.90;;;14.89;34.53
75172;BME280;63750;52.418;20.742;2023-03-19T09:12:36;100854.80;;;15.03;34.33
75172;BME280;63750;52.418;20.742;2023-03-19T09:15:05;100860.42;;;15.22;34.26
75172;BME280;63750;52.418;20.742;2023-03-19T09:17:34;100861.61;;;15.35;33.79
75172;BME280;63750;52.418;20.742;2023-03-19T09:20:03;100858.27;;;15.46;33.89
75172;BME280;63750;52.418;20.742;2023-03-19T09:22:32;100854.67;;;15.58;33.74
75172;BME280;63750;52.418;20.742;2023-03-19T09:25:00;100860.00;;;15.68;33.62
75172;BME280;63750;52.418;20.742;2023-03-19T09:27:29;100854.04;;;15.80;33.41
75172;BME280;63750;52.418;20.742;2023-03-19T09:29:57;100844.36;;;15.84;33.31
75172;BME280;63750;52.418;20.742;2023-03-19T09:32:26;100839.79;;;15.92;33.13
75172;BME280;63750;52.418;20.742;2023-03-19T09:34:54;100841.58;;;16.01;33.00
75172;BME280;63750;52.418;20.742;2023-03-19T09:37:23;100838.79;;;16.12;32.90
75172;BME280;63750;52.418;20.742;2023-03-19T09:39:51;100837.64;;;16.22;32.64
75172;BME280;63750;52.418;20.742;2023-03-19T09:42:30;100833.31;;;16.21;32.24
75172;BME280;63750;52.418;20.742;2023-03-19T09:45:13;100831.77;;;16.26;32.26
75172;BME280;63750;52.418;20.742;2023-03-19T09:47:43;100829.59;;;16.43;32.37
75172;BME280;63750;52.418;20.742;2023-03-19T09:50:14;100832.67;;;16.52;31.80
75172;BME280;63750;52.418;20.742;2023-03-19T09:52:46;100826.80;;;16.52;32.06
75172;BME280;63750;52.418;20.742;2023-03-19T09:55:29;100825.84;;;16.63;31.83
75172;BME280;63750;52.418;20.742;2023-03-19T09:57:59;100828.59;;;16.74;31.88
75172;BME280;63750;52.418;20.742;2023-03-19T10:00:31;100828.13;;;16.83;31.74
75172;BME280;63750;52.418;20.742;2023-03-19T10:03:05;100832.16;;;16.95;31.44
75172;BME280;63750;52.418;20.742;2023-03-19T10:05:46;100824.91;;;17.09;31.63
75172;BME280;63750;52.418;20.742;2023-03-19T10:08:42;100825.14;;;17.31;31.58
75172;BME280;63750;52.418;20.742;2023-03-19T10:11:26;100831.28;;;17.58;31.57
75172;BME280;63750;52.418;20.742;2023-03-19T10:14:06;100832.70;;;17.79;31.26
75172;BME280;63750;52.418;20.742;2023-03-19T10:16:44;100834.77;;;17.97;31.03
75172;BME280;63750;52.418;20.742;2023-03-19T10:19:17;100836.42;;;18.11;30.67
75172;BME280;63750;52.418;20.742;2023-03-19T10:21:51;100835.58;;;18.20;30.02
75172;BME280;63750;52.418;20.742;2023-03-19T10:24:23;100835.98;;;18.21;29.91
75172;BME280;63750;52.418;20.742;2023-03-19T10:26:58;100832.25;;;18.19;29.81
75172;BME280;63750;52.418;20.742;2023-03-19T10:29:28;100826.05;;;18.28;29.77
75172;BME280;63750;52.418;20.742;2023-03-19T10:32:04;100825.61;;;18.30;29.41
75172;BME280;63750;52.418;20.742;2023-03-19T10:34:36;100819.44;;;18.32;29.38
75172;BME280;63750;52.418;20.742;2023-03-19T10:37:11;100820.27;;;18.47;29.35
75172;BME280;63750;52.418;20.742;2023-03-19T10:39:42;100821.83;;;18.56;29.07
75172;BME280;63750;52.418;20.742;2023-03-19T10:42:41;100825.25;;;18.62;28.87
75172;BME280;63750;52.418;20.742;2023-03-19T10:45:22;100830.85;;;18.67;28.76
75172;BME280;63750;52.418;20.742;2023-03-19T10:47:52;100830.15;;;18.70;28.79
75172;BME280;63750;52.418;20.742;2023-03-19T10:50:22;100833.64;;;18.75;28.75
75172;BME280;63750;52.418;20.742;2023-03-19T10:53:05;100832.98;;;18.75;28.59
75172;BME280;63750;52.418;20.742;2023-03-19T10:55:34;100828.60;;;18.74;28.60
75172;BME280;63750;52.418;20.742;2023-03-19T10:58:05;100830.03;;;18.77;28.44
75172;BME280;63750;52.418;20.742;2023-03-19T11:00:34;100825.27;;;18.81;28.25
75172;BME280;63750;52.418;20.742;2023-03-19T11:03:03;100828.40;;;18.86;28.37
75172;BME280;63750;52.418;20.742;2023-03-19T11:05:32;100824.38;;;18.90;28.24
75172;BME280;63750;52.418;20.742;2023-03-19T11:08:04;100820.81;;;18.85;28.08
75172;BME280;63750;52.418;20.742;2023-03-19T11:10:34;100821.93;;;18.80;28.09
75172;BME280;63750;52.418;20.742;2023-03-19T11:13:06;100819.91;;;18.88;28.11
75172;BME280;63750;52.418;20.742;2023-03-19T11:15:42;100816.55;;;18.98;28.08
75172;BME280;63750;52.418;20.742;2023-03-19T11:18:20;100816.11;;;19.07;28.02
75172;BME280;63750;52.418;20.742;2023-03-19T11:20:54;100810.33;;;19.16;27.92
75172;BME280;63750;52.418;20.742;2023-03-19T11:23:27;100814.14;;;19.19;27.82
75172;BME280;63750;52.418;20.742;2023-03-19T11:26:00;100809.55;;;19.10;27.79
75172;BME280;63750;52.418;20.742;2023-03-19T11:28:29;100805.61;;;19.10;27.71
75172;BME280;63750;52.418;20.742;2023-03-19T11:31:01;100802.61;;;19.10;27.60
75172;BME280;63750;52.418;20.742;2023-03-19T11:33:48;100804.36;;;19.24;27.85
75172;BME280;63750;52.418;20.742;2023-03-19T11:36:21;100800.10;;;19.36;27.66
75172;BME280;63750;52.418;20.742;2023-03-19T11:39:03;100793.20;;;19.39;27.48
75172;BME280;63750;52.418;20.742;2023-03-19T11:41:46;100787.27;;;19.51;27.13
75172;BME280;63750;52.418;20.742;2023-03-19T11:44:19;100785.09;;;19.60;27.07
75172;BME280;63750;52.418;20.742;2023-03-19T11:47:03;100776.64;;;19.88;27.32
75172;BME280;63750;52.418;20.742;2023-03-19T11:49:53;100781.69;;;20.17;27.17
75172;BME280;63750;52.418;20.742;2023-03-19T11:52:34;100784.25;;;20.38;26.94
75172;BME280;63750;52.418;20.742;2023-03-19T11:55:18;100773.30;;;20.47;26.37
75172;BME280;63750;52.418;20.742;2023-03-19T11:58:03;100771.86;;;20.55;26.08
75172;BME280;63750;52.418;20.742;2023-03-19T12:00:37;100774.50;;;20.63;25.83
75172;BME280;63750;52.418;20.742;2023-03-19T12:03:50;100773.77;;;20.59;25.56
75172;BME280;63750;52.418;20.742;2023-03-19T12:06:27;100769.96;;;20.66;25.71
75172;BME280;63750;52.418;20.742;2023-03-19T12:09:02;100769.16;;;20.77;25.56
75172;BME280;63750;52.418;20.742;2023-03-19T12:11:35;100767.29;;;20.83;25.21
75172;BME280;63750;52.418;20.742;2023-03-19T12:14:21;100767.39;;;20.98;25.34
75172;BME280;63750;52.418;20.742;2023-03-19T12:17:02;100769.14;;;21.16;25.25
75172;BME280;63750;52.418;20.742;2023-03-19T12:19:47;100770.11;;;21.28;25.16
75172;BME280;63750;52.418;20.742;2023-03-19T12:22:27;100774.05;;;21.22;24.56
75172;BME280;63750;52.418;20.742;2023-03-19T12:25:15;100768.08;;;21.15;24.57
75172;BME280;63750;52.418;20.742;2023-03-19T12:27:52;100761.79;;;21.27;25.00
75172;BME280;63750;52.418;20.742;2023-03-19T12:30:28;100761.48;;;21.51;25.33
75172;BME280;63750;52.418;20.742;2023-03-19T12:33:12;100762.33;;;21.52;24.61
75172;BME280;63750;52.418;20.742;2023-03-19T12:35:46;100759.41;;;21.50;24.32
75172;BME280;63750;52.418;20.742;2023-03-19T12:38:19;100752.14;;;21.59;24.36
75172;BME280;63750;52.418;20.742;2023-03-19T12:40:55;100749.52;;;21.61;24.67
75172;BME280;63750;52.418;20.742;2023-03-19T12:43:29;100745.16;;;21.57;24.32
75172;BME280;63750;52.418;20.742;2023-03-19T12:46:02;100744.06;;;21.51;24.02
75172;BME280;63750;52.418;20.742;2023-03-19T12:48:39;100741.39;;;21.34;23.89
75172;BME280;63750;52.418;20.742;2023-03-19T12:51:12;100743.58;;;21.27;23.88
75172;BME280;63750;52.418;20.742;2023-03-19T12:53:47;100740.67;;;21.34;24.90
75172;BME280;63750;52.418;20.742;2023-03-19T12:56:22;100737.42;;;21.34;24.37
75172;BME280;63750;52.418;20.742;2023-03-19T12:58:58;100733.11;;;21.23;23.88
75172;BME280;63750;52.418;20.742;2023-03-19T13:01:31;100730.46;;;21.17;23.87
75172;BME280;63750;52.418;20.742;2023-03-19T13:04:07;100729.40;;;21.28;23.98
75172;BME280;63750;52.418;20.742;2023-03-19T13:06:40;100727.09;;;21.40;23.97
75172;BME280;63750;52.418;20.742;2023-03-19T13:09:15;100723.77;;;21.54;24.60
75172;BME280;63750;52.418;20.742;2023-03-19T13:11:50;100723.00;;;21.54;23.90
75172;BME280;63750;52.418;20.742;2023-03-19T13:14:25;100723.05;;;21.45;23.66
75172;BME280;63750;52.418;20.742;2023-03-19T13:17:00;100720.70;;;21.41;23.50